Time;durP1;ratioP1;P1;durP2;ratioP2;P2;SDS_P1;SDS_P2;PMS_P1;PMS_P2;Temp;Humidity;BMP_temperature;BMP_pressure;BME280_temperature;BME280_humidity;BME280_pressure;Samples;Min_cycle;Max_cycle;Signal;HPM_P1;HPM_P2
2022/08/07 00:01:17;;;;;;;1.45;0.85;;;23.50;76.00;;;;;;5062940;28;20044;-84
2022/08/07 00:04:05;;;;;;;1.85;0.95;;;23.60;76.20;;;;;;5079907;28;20083;-81
2022/08/07 00:06:37;;;;;;;1.83;1.17;;;23.30;77.10;;;;;;5060974;28;20040;-82
2022/08/07 00:09:18;;;;;;;1.40;0.93;;;23.50;76.90;;;;;;5037707;28;20045;-81
2022/08/07 00:11:48;;;;;;;2.10;0.95;;;23.50;76.80;;;;;;5066432;28;20129;-82
2022/08/07 00:14:28;;;;;;;1.50;1.00;;;23.50;76.40;;;;;;5058824;28;20128;-82
2022/08/07 00:17:00;;;;;;;1.27;0.82;;;23.40;76.30;;;;;;5072449;28;20052;-82
2022/08/07 00:19:30;;;;;;;1.73;1.02;;;23.40;76.80;;;;;;5059798;28;20171;-81
2022/08/07 00:22:18;;;;;;;1.58;1.00;;;23.50;76.90;;;;;;5077318;28;20051;-81
2022/08/07 00:25:08;;;;;;;1.27;0.75;;;23.40;77.00;;;;;;5082140;28;20048;-83
2022/08/07 00:27:44;;;;;;;2.17;0.77;;;23.40;76.80;;;;;;5072783;28;20040;-82
2022/08/07 00:30:21;;;;;;;2.47;1.13;;;23.30;77.30;;;;;;5070832;28;20052;-82
2022/08/07 00:33:02;;;;;;;2.22;1.08;;;23.20;77.80;;;;;;5070966;28;20401;-81
2022/08/07 00:35:29;;;;;;;1.63;0.80;;;23.20;77.70;;;;;;5063413;28;20051;-84
2022/08/07 00:38:01;;;;;;;1.67;1.10;;;23.30;77.40;;;;;;5062756;28;20068;-84
2022/08/07 00:40:29;;;;;;;2.00;1.30;;;23.30;77.40;;;;;;5062605;28;20080;-80
2022/08/07 00:43:11;;;;;;;2.13;1.45;;;23.30;77.60;;;;;;5065031;28;20558;-81
2022/08/07 00:46:00;;;;;;;2.22;1.30;;;23.30;77.90;;;;;;5081877;28;20045;-82
2022/08/07 00:48:28;;;;;;;1.95;1.10;;;23.30;77.80;;;;;;5060918;28;20048;-82
2022/08/07 00:50:59;;;;;;;1.83;0.90;;;23.10;78.20;;;;;;5087065;28;20056;-81
2022/08/07 00:53:27;;;;;;;3.03;1.30;;;23.20;78.40;;;;;;5049359;28;20102;-83
2022/08/07 00:56:14;;;;;;;1.45;1.00;;;23.30;77.80;;;;;;5084647;28;20201;-81
2022/08/07 00:58:43;;;;;;;1.38;0.90;;;23.40;78.10;;;;;;5046613;28;20032;-82
2022/08/07 01:01:16;;;;;;;1.30;0.98;;;23.10;78.30;;;;;;5065532;28;20036;-82
2022/08/07 01:03:44;;;;;;;1.67;1.13;;;23.20;78.70;;;;;;5086052;28;20040;-82
2022/08/07 01:06:27;;;;;;;2.25;1.35;;;23.20;78.90;;;;;;5070248;28;20044;-83
2022/08/07 01:08:55;;;;;;;1.70;0.90;;;23.10;78.90;;;;;;5081825;28;20135;-81
2022/08/07 01:11:31;;;;;;;3.13;1.38;;;23.00;79.50;;;;;;5083084;28;20139;-82
2022/08/07 01:14:20;;;;;;;1.58;0.93;;;23.10;79.60;;;;;;5082394;28;20047;-81
2022/08/07 01:16:56;;;;;;;2.10;1.10;;;23.10;79.10;;;;;;5049206;28;20059;-81
2022/08/07 01:19:28;;;;;;;2.15;1.23;;;23.10;79.50;;;;;;5062771;28;20040;-83
2022/08/07 01:22:00;;;;;;;2.47;1.30;;;23.10;79.40;;;;;;5073308;28;20056;-82
2022/08/07 01:24:38;;;;;;;2.20;0.98;;;23.20;79.20;;;;;;5069482;28;20408;-84
2022/08/07 01:27:06;;;;;;;1.48;0.98;;;22.90;81.10;;;;;;5046606;28;20059;-82
2022/08/07 01:29:47;;;;;;;1.73;0.77;;;22.90;80.60;;;;;;5066726;28;20575;-81
2022/08/07 01:32:17;;;;;;;2.22;1.20;;;22.90;80.40;;;;;;5079614;28;20055;-81
2022/08/07 01:34:49;;;;;;;2.20;1.40;;;23.00;80.40;;;;;;5072988;28;20050;-82
2022/08/07 01:37:17;;;;;;;1.92;1.23;;;23.10;80.10;;;;;;5080041;28;20058;-84
2022/08/07 01:39:47;;;;;;;2.60;0.90;;;23.00;80.80;;;;;;5079156;28;20040;-83
2022/08/07 01:42:28;;;;;;;3.47;1.17;;;22.90;80.70;;;;;;5067609;28;20396;-82
2022/08/07 01:45:19;;;;;;;1.70;1.20;;;22.90;80.80;;;;;;5087453;28;20040;-85
2022/08/07 01:47:56;;;;;;;1.92;0.98;;;22.90;80.50;;;;;;5050142;28;20548;-82
2022/08/07 01:50:52;;;;;;;2.45;1.10;;;22.80;81.30;;;;;;5065381;28;20047;-83
2022/08/07 01:53:24;;;;;;;3.45;1.17;;;23.00;80.90;;;;;;5053102;28;20047;-83
2022/08/07 01:56:21;;;;;;;4.75;1.00;;;22.90;81.30;;;;;;5067263;28;20389;-82
2022/08/07 01:59:24;;;;;;;2.97;1.20;;;23.00;81.10;;;;;;5054399;28;20037;-82
2022/08/07 02:02:11;;;;;;;2.33;1.48;;;23.10;80.80;;;;;;5058159;28;20055;-82
2022/08/07 02:05:04;;;;;;;2.13;1.48;;;23.00;80.80;;;;;;5073576;28;20068;-83
2022/08/07 02:07:38;;;;;;;1.95;1.27;;;23.10;80.90;;;;;;5063599;28;20037;-83
2022/08/07 02:10:30;;;;;;;2.67;0.93;;;23.10;81.10;;;;;;5085460;28;20044;-82
2022/08/07 02:13:00;;;;;;;1.95;1.17;;;22.90;81.20;;;;;;5084111;28;20032;-82
2022/08/07 02:15:37;;;;;;;3.17;1.50;;;23.00;81.40;;;;;;5070654;28;20048;-82
2022/08/07 02:18:09;;;;;;;3.35;1.38;;;22.90;81.60;;;;;;5075625;28;20090;-80
2022/08/07 02:20:40;;;;;;;3.17;1.20;;;23.00;81.20;;;;;;5086304;28;20044;-80
2022/08/07 02:23:17;;;;;;;2.47;1.27;;;23.10;81.10;;;;;;5080729;28;20044;-81
2022/08/07 02:25:55;;;;;;;1.70;1.00;;;23.10;81.30;;;;;;5049236;28;20104;-81
2022/08/07 02:28:43;;;;;;;3.00;1.45;;;23.10;80.60;;;;;;5070431;28;20076;-81
2022/08/07 02:31:12;;;;;;;1.48;1.00;;;23.20;80.60;;;;;;5054217;28;20512;-81
2022/08/07 02:33:58;;;;;;;1.80;0.88;;;23.10;80.40;;;;;;5041466;28;20122;-82
2022/08/07 02:36:35;;;;;;;2.95;1.17;;;23.10;80.70;;;;;;5069824;28;20557;-81
2022/08/07 02:39:10;;;;;;;1.85;1.17;;;23.00;81.20;;;;;;5045142;28;20394;-82
2022/08/07 02:41:59;;;;;;;1.40;1.20;;;23.10;81.00;;;;;;5068725;28;20037;-82
2022/08/07 02:44:29;;;;;;;1.70;0.90;;;23.10;81.20;;;;;;5054814;28;20051;-81
2022/08/07 02:47:05;;;;;;;1.95;1.30;;;23.10;80.90;;;;;;5067232;28;20060;-82
2022/08/07 02:49:34;;;;;;;1.60;1.30;;;23.10;80.60;;;;;;5069161;28;20054;-82
2022/08/07 02:52:31;;;;;;;1.25;1.05;;;23.10;80.90;;;;;;5041060;28;20043;-81
2022/08/07 02:55:05;;;;;;;1.70;1.10;;;23.00;81.00;;;;;;5061726;28;20060;-81
2022/08/07 02:57:57;;;;;;;2.13;0.80;;;23.10;81.00;;;;;;5064737;28;20039;-82
2022/08/07 03:00:28;;;;;;;1.50;1.05;;;23.20;80.70;;;;;;5043687;28;20106;-82
2022/08/07 03:02:58;;;;;;;1.50;1.00;;;23.00;81.00;;;;;;5071489;28;20052;-82
2022/08/07 03:05:35;;;;;;;2.00;0.90;;;23.00;81.20;;;;;;5077978;28;20104;-85
2022/08/07 03:08:06;;;;;;;1.65;0.60;;;22.90;82.00;;;;;;5069419;28;20045;-84
2022/08/07 03:10:40;;;;;;;1.60;0.85;;;22.80;82.00;;;;;;5057605;28;20045;-86
2022/08/07 03:13:18;;;;;;;1.92;1.10;;;22.90;81.50;;;;;;5054139;28;20063;-84
2022/08/07 03:15:49;;;;;;;1.27;0.80;;;22.80;81.90;;;;;;5062463;28;20037;-82
2022/08/07 03:18:28;;;;;;;2.30;1.15;;;22.90;81.80;;;;;;5081152;28;20047;-82
2022/08/07 03:21:05;;;;;;;3.80;0.93;;;22.90;81.10;;;;;;5049722;28;20439;-82
2022/08/07 03:23:40;;;;;;;2.08;1.45;;;23.00;80.90;;;;;;5062836;28;20056;-83
2022/08/07 03:26:31;;;;;;;1.75;1.10;;;23.20;80.60;;;;;;5075677;28;20556;-83
2022/08/07 03:29:06;;;;;;;1.20;0.82;;;22.90;80.90;;;;;;5077003;28;20044;-87
2022/08/07 03:31:41;;;;;;;1.40;0.70;;;22.90;80.70;;;;;;5081163;28;20561;-82
2022/08/07 03:34:18;;;;;;;1.20;0.63;;;22.90;81.00;;;;;;5065443;28;20033;-83
2022/08/07 03:36:56;;;;;;;2.60;0.73;;;23.00;80.70;;;;;;5079995;28;20044;-81
2022/08/07 03:39:26;;;;;;;2.45;1.15;;;22.80;80.90;;;;;;5069793;28;20493;-84
2022/08/07 03:42:16;;;;;;;2.53;0.70;;;22.80;81.20;;;;;;5068461;28;20032;-83
2022/08/07 03:44:45;;;;;;;1.70;0.93;;;22.80;81.40;;;;;;5067685;28;20044;-82
2022/08/07 03:47:20;;;;;;;1.88;0.82;;;22.70;81.90;;;;;;5042389;28;20132;-83
2022/08/07 03:49:49;;;;;;;3.47;1.65;;;22.90;81.00;;;;;;5061345;28;20047;-83
2022/08/07 03:52:24;;;;;;;2.13;1.02;;;22.80;81.20;;;;;;5074083;28;20446;-83
2022/08/07 03:54:59;;;;;;;0.93;0.73;;;22.80;81.90;;;;;;5063494;28;20560;-86
2022/08/07 03:57:37;;;;;;;3.05;0.73;;;22.80;81.30;;;;;;5059014;28;20221;-83
2022/08/07 04:00:31;;;;;;;1.00;0.60;;;22.90;81.00;;;;;;5055274;28;20561;-83
2022/08/07 04:03:02;;;;;;;2.95;0.90;;;22.80;81.30;;;;;;5068378;28;20057;-85
2022/08/07 04:05:35;;;;;;;2.88;0.88;;;22.80;81.50;;;;;;5067401;28;20090;-83
2022/08/07 04:08:22;;;;;;;1.23;0.70;;;22.90;81.20;;;;;;5081589;28;20072;-84
2022/08/07 04:10:51;;;;;;;1.02;0.70;;;22.90;81.30;;;;;;5044573;28;20071;-86
2022/08/07 04:13:42;;;;;;;1.23;0.60;;;22.80;81.50;;;;;;5078324;28;20152;-82
2022/08/07 04:16:30;;;;;;;1.48;0.68;;;22.60;82.70;;;;;;5058808;28;20413;-83
2022/08/07 04:19:02;;;;;;;1.58;0.70;;;22.70;82.50;;;;;;5068722;28;20071;-83
2022/08/07 04:21:41;;;;;;;1.77;0.65;;;22.80;82.30;;;;;;5038010;28;20420;-85
2022/08/07 04:24:26;;;;;;;1.70;0.50;;;22.60;82.90;;;;;;5035964;28;20524;-83
2022/08/07 04:27:06;;;;;;;1.10;0.50;;;22.60;82.90;;;;;;5066162;28;20048;-82
2022/08/07 04:29:51;;;;;;;0.93;0.60;;;22.50;83.70;;;;;;5057472;28;20044;-86
2022/08/07 04:32:44;;;;;;;2.00;0.70;;;22.70;83.30;;;;;;5072066;28;20047;-84
2022/08/07 04:35:16;;;;;;;1.40;0.60;;;22.60;83.50;;;;;;5055323;28;20041;-82
2022/08/07 04:37:49;;;;;;;2.20;0.70;;;22.60;83.90;;;;;;5072631;28;20489;-84
2022/08/07 04:40:31;;;;;;;;;;;22.60;83.80;;;;;;5041628;28;20045;-85
2022/08/07 04:42:59;;;;;;;1.10;0.68;;;22.60;83.70;;;;;;5066894;28;19921;-82
2022/08/07 04:45:40;;;;;;;1.17;0.57;;;22.40;84.50;;;;;;5090350;28;20083;-84
2022/08/07 04:48:40;;;;;;;2.38;0.45;;;22.40;84.50;;;;;;5058966;28;20075;-84
2022/08/07 04:51:36;;;;;;;1.38;0.70;;;22.40;84.90;;;;;;5039579;28;20044;-85
2022/08/07 04:54:24;;;;;;;1.55;0.60;;;22.70;84.20;;;;;;5049094;28;20077;-84
2022/08/07 04:57:25;;;;;;;1.50;0.40;;;22.70;84.00;;;;;;5055481;28;20253;-83
2022/08/07 05:00:17;;;;;;;1.30;0.30;;;22.50;85.00;;;;;;5057077;28;20099;-84
2022/08/07 05:03:03;;;;;;;1.08;0.47;;;22.60;86.20;;;;;;5082212;28;20114;-83
2022/08/07 05:06:47;;;;;;;0.50;0.38;;;22.70;86.30;;;;;;5074727;28;20532;-83
2022/08/07 05:09:30;;;;;;;1.10;0.52;;;22.90;85.90;;;;;;4989322;28;20045;-83
2022/08/07 05:12:25;;;;;;;2.63;0.60;;;22.90;85.60;;;;;;5077606;28;20095;-83
2022/08/07 05:15:16;;;;;;;0.73;0.40;;;23.10;86.00;;;;;;5042149;28;20096;-84
2022/08/07 05:18:01;;;;;;;1.63;0.77;;;22.90;86.60;;;;;;5037469;28;20061;-83
2022/08/07 05:20:42;;;;;;;1.27;0.40;;;22.90;86.30;;;;;;5075084;28;20134;-84
2022/08/07 05:23:19;;;;;;;1.67;0.60;;;22.80;87.00;;;;;;5085947;28;20075;-85
2022/08/07 05:25:59;;;;;;;1.10;0.50;;;22.70;87.80;;;;;;5046030;28;20045;-84
2022/08/07 05:28:50;;;;;;;0.70;0.40;;;22.90;86.80;;;;;;5046759;28;20489;-83
2022/08/07 05:31:25;;;;;;;1.65;0.73;;;22.70;87.10;;;;;;5045540;28;20055;-84
2022/08/07 05:34:10;;;;;;;1.15;0.40;;;22.80;86.70;;;;;;5053882;28;20136;-83
2022/08/07 05:36:47;;;;;;;3.42;0.90;;;23.00;87.00;;;;;;5084083;28;20045;-84
2022/08/07 05:39:37;;;;;;;6.30;1.38;;;23.00;91.90;;;;;;5065346;28;20139;-83
2022/08/07 05:42:25;;;;;;;3.65;0.77;;;22.90;94.70;;;;;;5050657;28;20043;-85
2022/08/07 05:45:05;;;;;;;3.65;0.90;;;22.70;97.20;;;;;;5057865;28;20050;-84
2022/08/07 05:47:55;;;;;;;0.90;0.40;;;22.70;95.80;;;;;;5061316;28;20033;-84
2022/08/07 05:50:42;;;;;;;1.40;0.50;;;22.60;95.10;;;;;;5057488;28;20413;-85
2022/08/07 05:53:12;;;;;;;1.58;0.52;;;22.70;96.10;;;;;;5077867;28;20102;-86
2022/08/07 05:56:03;;;;;;;1.42;0.40;;;22.60;95.20;;;;;;5054088;28;20037;-89
2022/08/07 05:58:40;;;;;;;1.25;0.50;;;22.50;92.90;;;;;;5047494;28;20045;-85
2022/08/07 06:01:20;;;;;;;2.33;0.60;;;22.50;93.90;;;;;;5053454;28;20048;-85
2022/08/07 06:03:53;;;;;;;1.20;0.47;;;22.50;92.40;;;;;;5053900;28;20041;-83
2022/08/07 06:06:33;;;;;;;0.93;0.75;;;22.50;92.40;;;;;;5034481;28;20132;-85
2022/08/07 06:09:04;;;;;;;2.35;0.50;;;22.40;92.40;;;;;;5086060;28;20055;-89
2022/08/07 06:11:36;;;;;;;0.95;0.50;;;22.20;92.70;;;;;;5055735;28;20546;-90
2022/08/07 06:14:05;;;;;;;2.10;0.50;;;22.30;92.10;;;;;;5063178;28;20428;-84
2022/08/07 06:16:45;;;;;;;1.13;0.40;;;22.50;93.50;;;;;;5066443;28;20151;-88
2022/08/07 06:19:24;;;;;;;1.42;0.40;;;22.50;92.60;;;;;;5061945;28;20139;-89
2022/08/07 06:22:15;;;;;;;1.23;0.50;;;22.50;92.00;;;;;;5033778;28;20056;-91
2022/08/07 06:25:04;;;;;;;2.28;0.50;;;22.50;91.60;;;;;;5036227;28;20556;-85
2022/08/07 06:27:37;;;;;;;1.67;0.60;;;22.60;91.20;;;;;;5032980;28;20718;-85
2022/08/07 06:30:25;;;;;;;3.10;0.50;;;22.60;91.40;;;;;;5077120;28;20556;-83
2022/08/07 06:33:10;;;;;;;1.95;0.70;;;22.70;92.00;;;;;;5051222;28;20519;-85
2022/08/07 06:35:47;;;;;;;2.20;0.75;;;22.50;93.40;;;;;;5041183;28;20048;-85
2022/08/07 06:38:39;;;;;;;1.20;0.70;;;22.40;93.60;;;;;;5071937;28;20138;-84
2022/08/07 06:41:31;;;;;;;1.50;0.52;;;22.50;94.50;;;;;;5064765;28;20484;-83
2022/08/07 06:44:20;;;;;;;1.15;0.60;;;22.50;95.20;;;;;;5044704;28;20039;-83
2022/08/07 06:46:50;;;;;;;1.25;0.50;;;22.50;95.40;;;;;;5052776;28;20455;-81
2022/08/07 06:49:38;;;;;;;2.35;0.50;;;22.50;95.30;;;;;;5030311;28;20058;-83
2022/08/07 06:52:30;;;;;;;1.75;0.50;;;22.50;94.60;;;;;;5062185;28;20459;-83
2022/08/07 06:55:10;;;;;;;0.90;0.60;;;22.60;94.70;;;;;;5064996;28;20048;-83
2022/08/07 06:58:05;;;;;;;1.42;0.70;;;22.60;94.20;;;;;;5031479;28;20168;-83
2022/08/07 07:00:43;;;;;;;1.10;0.45;;;22.60;94.10;;;;;;5058847;28;20048;-83
2022/08/07 07:03:11;;;;;;;1.23;0.65;;;22.60;94.00;;;;;;5049548;28;20088;-84
2022/08/07 07:05:40;;;;;;;0.95;0.63;;;22.60;93.50;;;;;;5078662;28;20131;-83
2022/08/07 07:08:29;;;;;;;1.30;0.50;;;22.60;94.10;;;;;;5050301;28;20049;-84
2022/08/07 07:11:00;;;;;;;1.73;0.90;;;22.80;94.70;;;;;;5059393;28;20039;-87
2022/08/07 07:13:52;;;;;;;1.42;0.60;;;22.70;93.90;;;;;;5049068;28;20297;-84
2022/08/07 07:16:35;;;;;;;1.83;0.50;;;22.60;93.70;;;;;;5057403;28;20049;-92
2022/08/07 07:19:21;;;;;;;3.45;0.63;;;22.40;94.10;;;;;;5044482;28;20049;-89
2022/08/07 07:22:10;;;;;;;1.40;0.60;;;22.30;95.20;;;;;;5071250;28;20037;-82
2022/08/07 07:24:59;;;;;;;2.25;0.85;;;22.40;96.20;;;;;;5079475;28;20039;-90
2022/08/07 07:27:55;;;;;;;1.48;0.70;;;22.50;94.50;;;;;;5055870;28;20047;-90
2022/08/07 07:30:34;;;;;;;1.92;0.57;;;22.60;93.30;;;;;;5048075;28;20045;-88
2022/08/07 07:33:09;;;;;;;0.80;0.50;;;22.60;91.70;;;;;;5036987;28;20052;-92
2022/08/07 07:35:43;;;;;;;0.95;0.43;;;22.80;91.60;;;;;;5072368;28;20509;-85
2022/08/07 07:38:32;;;;;;;1.08;0.68;;;22.80;89.90;;;;;;5082767;28;20048;-84
2022/08/07 07:41:06;;;;;;;1.52;0.55;;;23.10;90.90;;;;;;5039044;28;20048;-88
2022/08/07 07:43:40;;;;;;;1.33;0.65;;;23.30;91.50;;;;;;5055065;28;20155;-84
2022/08/07 07:46:29;;;;;;;1.17;0.70;;;23.40;91.40;;;;;;5059402;28;20097;-85
2022/08/07 07:49:19;;;;;;;3.13;0.50;;;23.40;90.00;;;;;;5068595;28;20060;-88
2022/08/07 07:52:08;;;;;;;1.50;0.63;;;23.50;87.60;;;;;;5029831;28;20040;-85
2022/08/07 07:54:38;;;;;;;0.98;0.40;;;23.60;90.10;;;;;;5066063;28;20039;-86
2022/08/07 07:57:20;;;;;;;1.10;0.60;;;23.70;87.20;;;;;;5058905;28;20032;-89
2022/08/07 08:00:08;;;;;;;1.20;0.60;;;23.70;83.70;;;;;;5076175;28;20866;-86
2022/08/07 08:02:42;;;;;;;1.43;0.50;;;23.70;81.80;;;;;;5036840;28;20040;-89
2022/08/07 08:05:30;;;;;;;1.55;0.60;;;23.70;80.20;;;;;;5056048;28;20036;-86
2022/08/07 08:08:18;;;;;;;2.55;0.50;;;23.90;80.40;;;;;;5041765;28;20039;-87
2022/08/07 08:11:09;;;;;;;0.82;0.55;;;23.90;80.60;;;;;;5079324;28;20071;-88
2022/08/07 08:13:46;;;;;;;1.05;0.55;;;23.90;79.20;;;;;;5035826;28;20129;-86
2022/08/07 08:16:43;;;;;;;0.70;0.32;;;23.90;77.90;;;;;;5076025;28;20041;-90
2022/08/07 08:19:33;;;;;;;1.52;0.88;;;23.70;76.40;;;;;;5052885;28;20047;-86
2022/08/07 08:28:21;;;;;;;2.75;0.60;;;23.90;74.80;;;;;;5064030;28;20837;-84
2022/08/07 08:31:10;;;;;;;0.82;0.40;;;23.70;73.10;;;;;;5065118;28;20037;-83
2022/08/07 08:33:44;;;;;;;1.42;0.30;;;23.70;74.20;;;;;;5045667;28;20094;-87
2022/08/07 08:36:18;;;;;;;2.67;0.30;;;23.80;73.00;;;;;;5054499;28;20048;-94
2022/08/07 08:38:54;;;;;;;0.88;0.45;;;23.60;72.20;;;;;;5037794;28;20044;-86
2022/08/07 08:41:27;;;;;;;0.60;0.40;;;23.70;73.60;;;;;;5076530;28;20057;-93
2022/08/07 08:44:23;;;;;;;1.15;0.30;;;23.60;72.00;;;;;;5047376;28;20049;-85
2022/08/07 08:47:05;;;;;;;1.20;0.38;;;23.60;73.80;;;;;;5080536;28;20059;-87
2022/08/07 08:50:02;;;;;;;0.98;0.40;;;23.50;74.30;;;;;;5071193;28;20041;-90
2022/08/07 08:52:37;;;;;;;1.80;0.40;;;23.50;75.40;;;;;;5042027;28;20045;-87
2022/08/07 08:55:22;;;;;;;2.30;0.40;;;23.40;75.50;;;;;;5070870;28;20053;-87
2022/08/07 08:58:32;;;;;;;1.00;0.30;;;23.50;74.10;;;;;;5069492;28;20055;-87
2022/08/07 09:01:24;;;;;;;1.05;0.45;;;23.40;73.60;;;;;;5042296;28;20131;-81
2022/08/07 09:04:07;;;;;;;1.02;0.45;;;23.40;73.90;;;;;;5067933;28;20048;-84
2022/08/07 09:07:02;;;;;;;0.85;0.43;;;23.40;73.20;;;;;;5047690;28;20091;-89
2022/08/07 09:09:53;;;;;;;0.70;0.50;;;23.50;72.30;;;;;;5042298;28;20169;-87
2022/08/07 09:13:05;;;;;;;1.83;0.30;;;23.60;71.40;;;;;;5093815;28;20044;-88
2022/08/07 09:15:42;;;;;;;1.17;0.30;;;23.70;71.40;;;;;;5019261;28;20041;-86
2022/08/07 09:18:40;;;;;;;1.20;0.50;;;23.70;71.50;;;;;;5069062;28;20051;-87
2022/08/07 09:21:32;;;;;;;1.33;0.50;;;23.90;71.20;;;;;;5084827;28;20040;-84
2022/08/07 09:24:49;;;;;;;4.20;0.40;;;24.10;70.70;;;;;;5064211;28;20028;-87
2022/08/07 09:27:39;;;;;;;1.63;0.73;;;24.20;70.80;;;;;;5070212;28;20048;-86
2022/08/07 09:30:51;;;;;;;1.15;0.30;;;24.30;72.80;;;;;;5047764;28;20051;-83
2022/08/07 09:33:42;;;;;;;2.28;0.50;;;24.30;71.80;;;;;;5053049;28;20043;-84
2022/08/07 09:36:33;;;;;;;1.95;0.30;;;24.30;70.60;;;;;;5054599;28;20083;-84
2022/08/07 09:39:21;;;;;;;2.17;0.43;;;24.40;72.00;;;;;;5070957;28;20062;-85
2022/08/07 09:42:14;;;;;;;1.60;0.30;;;24.50;73.20;;;;;;5050356;28;20040;-86
2022/08/07 09:45:00;;;;;;;1.15;0.38;;;24.60;71.60;;;;;;5063715;28;20053;-86
2022/08/07 09:48:27;;;;;;;1.70;0.30;;;24.60;68.50;;;;;;5067102;28;20036;-81
2022/08/07 09:51:28;;;;;;;0.80;0.40;;;24.60;68.00;;;;;;5071292;28;20075;-87
2022/08/07 09:54:28;;;;;;;1.00;0.40;;;24.60;68.10;;;;;;5023355;28;20054;-82
2022/08/07 09:57:15;;;;;;;0.98;0.60;;;24.70;67.60;;;;;;5033759;28;20266;-83
2022/08/07 10:00:07;;;;;;;1.52;0.55;;;24.70;67.40;;;;;;5036207;28;20137;-86
2022/08/07 10:02:55;;;;;;;0.75;0.32;;;24.90;68.20;;;;;;5055572;28;20052;-82
2022/08/07 10:05:31;;;;;;;0.80;0.40;;;24.90;69.10;;;;;;5070570;28;20059;-85
2022/08/07 10:08:40;;;;;;;0.80;0.50;;;24.80;68.60;;;;;;5046192;28;20032;-88
2022/08/07 10:11:45;;;;;;;0.98;0.40;;;24.90;68.10;;;;;;5081918;28;20045;-85
2022/08/07 10:14:40;;;;;;;1.15;0.47;;;24.90;66.50;;;;;;5069830;28;20094;-86
2022/08/07 10:17:29;;;;;;;1.67;0.40;;;24.90;66.70;;;;;;5055549;28;20148;-88
2022/08/07 10:20:34;;;;;;;0.88;0.40;;;25.10;67.10;;;;;;5042675;28;20044;-84
2022/08/07 10:23:09;;;;;;;1.65;0.68;;;25.20;65.70;;;;;;5052436;28;20107;-82
2022/08/07 10:25:45;;;;;;;1.50;0.30;;;25.30;66.90;;;;;;5067676;28;20127;-87
2022/08/07 10:28:48;;;;;;;;;;;25.30;65.30;;;;;;5061097;28;20036;-83
2022/08/07 10:31:53;;;;;;;2.47;0.40;;;25.40;65.70;;;;;;5082182;28;19929;-83
2022/08/07 10:35:00;;;;;;;1.20;0.47;;;25.50;66.40;;;;;;5071008;28;20136;-85
2022/08/07 10:37:54;;;;;;;1.70;0.80;;;25.50;65.70;;;;;;5079643;28;20054;-83
2022/08/07 10:40:50;;;;;;;2.00;0.60;;;25.50;65.80;;;;;;5079343;28;20485;-83
2022/08/07 10:43:28;;;;;;;1.45;0.60;;;25.70;65.90;;;;;;5070622;28;20118;-85
2022/08/07 10:46:08;;;;;;;1.00;0.40;;;25.70;65.30;;;;;;5034540;28;20048;-86
2022/08/07 10:48:47;;;;;;;1.92;0.57;;;25.90;65.60;;;;;;5059144;28;20044;-83
2022/08/07 10:51:22;;;;;;;1.15;0.50;;;26.00;65.10;;;;;;5076927;28;20101;-82
2022/08/07 10:54:14;;;;;;;0.98;0.50;;;26.30;65.40;;;;;;5059536;28;20051;-83
2022/08/07 10:56:56;;;;;;;1.45;0.60;;;26.40;64.80;;;;;;5045711;28;20051;-82
2022/08/07 10:59:42;;;;;;;2.40;0.75;;;26.60;63.80;;;;;;5044915;28;21018;-83
2022/08/07 11:02:44;;;;;;;2.00;0.60;;;26.60;62.90;;;;;;5049526;28;20056;-86
2022/08/07 11:05:37;;;;;;;2.35;0.93;;;26.70;64.10;;;;;;5067702;28;20049;-85
2022/08/07 11:08:41;;;;;;;1.65;0.65;;;26.60;63.50;;;;;;5047932;28;20138;-85
2022/08/07 11:11:28;;;;;;;1.83;0.75;;;26.60;65.40;;;;;;5070076;28;20058;-83
2022/08/07 11:14:22;;;;;;;1.20;0.60;;;26.60;64.90;;;;;;5052613;28;20409;-83
2022/08/07 11:17:13;;;;;;;1.00;0.60;;;26.60;63.40;;;;;;5048328;28;20094;-81
2022/08/07 11:20:09;;;;;;;1.88;0.50;;;26.60;64.60;;;;;;5046511;28;20098;-85
2022/08/07 11:23:09;;;;;;;1.00;0.40;;;26.60;64.10;;;;;;5065279;28;20058;-82
2022/08/07 11:26:04;;;;;;;1.08;0.60;;;26.60;64.20;;;;;;5061589;28;20068;-84
2022/08/07 11:28:42;;;;;;;1.40;0.70;;;26.60;63.10;;;;;;5053324;28;20496;-84
2022/08/07 11:31:45;;;;;;;0.82;0.50;;;26.80;63.60;;;;;;5079283;28;20053;-84
2022/08/07 11:34:18;;;;;;;3.90;0.70;;;26.90;64.10;;;;;;5051687;28;20132;-83
2022/08/07 11:37:05;;;;;;;1.20;0.47;;;27.00;63.80;;;;;;5069148;28;20048;-83
2022/08/07 11:39:44;;;;;;;2.33;0.50;;;27.10;63.80;;;;;;5057927;28;20106;-88
2022/08/07 11:42:56;;;;;;;2.03;0.63;;;27.20;62.80;;;;;;5048988;28;20052;-85
2022/08/07 11:45:34;;;;;;;1.10;0.50;;;27.10;62.60;;;;;;5057275;28;20044;-80
2022/08/07 11:48:34;;;;;;;0.95;0.50;;;27.30;63.40;;;;;;5080457;28;20165;-82
2022/08/07 11:51:12;;;;;;;2.60;0.60;;;27.40;61.90;;;;;;5056900;28;20086;-83
2022/08/07 11:54:17;;;;;;;1.27;0.57;;;27.50;61.90;;;;;;5049138;28;20064;-85
2022/08/07 11:57:15;;;;;;;1.63;0.80;;;27.50;60.90;;;;;;5049677;28;20107;-82
2022/08/07 11:59:54;;;;;;;1.15;0.60;;;27.70;60.20;;;;;;5055051;28;20048;-82
2022/08/07 12:03:14;;;;;;;2.25;0.70;;;27.60;60.80;;;;;;5051841;28;20072;-82
2022/08/07 12:06:07;;;;;;;2.08;0.73;;;27.50;60.10;;;;;;5065084;28;20043;-81
2022/08/07 12:09:18;;;;;;;1.83;0.60;;;27.60;61.20;;;;;;5061500;28;20218;-85
2022/08/07 12:11:55;;;;;;;1.80;0.85;;;27.80;60.30;;;;;;5059736;28;20419;-81
2022/08/07 12:15:02;;;;;;;3.53;0.73;;;27.80;61.00;;;;;;5029529;28;20040;-83
2022/08/07 12:17:45;;;;;;;2.42;0.98;;;27.90;61.10;;;;;;5051883;28;20036;-82
2022/08/07 12:20:40;;;;;;;1.17;0.70;;;28.00;61.30;;;;;;5089754;28;20044;-83
2022/08/07 12:23:26;;;;;;;1.77;0.63;;;28.00;60.30;;;;;;5070406;28;20044;-81
2022/08/07 12:26:23;;;;;;;1.83;0.65;;;27.90;60.10;;;;;;5066291;28;20063;-84
2022/08/07 12:29:07;;;;;;;2.45;0.90;;;28.00;61.00;;;;;;5073399;28;20059;-84
2022/08/07 12:31:50;;;;;;;1.30;0.65;;;28.10;59.80;;;;;;5067488;28;20366;-85
2022/08/07 12:34:32;;;;;;;1.20;0.70;;;28.20;59.70;;;;;;5037052;28;20051;-83
2022/08/07 12:37:00;;;;;;;2.83;1.17;;;28.10;58.70;;;;;;5060359;28;20047;-82
2022/08/07 12:39:46;;;;;;;1.75;1.20;;;28.10;60.10;;;;;;5056522;28;20446;-85
2022/08/07 12:42:27;;;;;;;2.42;0.95;;;28.10;60.20;;;;;;5051163;28;20044;-85
2022/08/07 12:45:04;;;;;;;2.28;0.95;;;28.20;60.30;;;;;;5077348;28;20052;-85
2022/08/07 12:47:53;;;;;;;1.73;0.80;;;28.10;59.90;;;;;;5055924;28;20068;-85
2022/08/07 12:50:49;;;;;;;1.67;0.80;;;28.20;59.40;;;;;;5065973;28;20040;-86
2022/08/07 12:53:18;;;;;;;2.47;1.00;;;28.20;58.50;;;;;;5046825;28;20505;-83
2022/08/07 12:56:02;;;;;;;2.25;0.90;;;28.20;59.50;;;;;;5077286;28;20060;-84
2022/08/07 12:58:39;;;;;;;2.50;0.80;;;28.30;59.60;;;;;;5051941;28;20496;-85
2022/08/07 13:01:29;;;;;;;1.92;1.10;;;28.40;59.10;;;;;;5078805;28;20050;-86
2022/08/07 13:04:29;;;;;;;1.30;0.80;;;28.50;59.00;;;;;;5025475;28;20054;-88
2022/08/07 13:07:24;;;;;;;2.33;0.65;;;28.50;58.60;;;;;;5050244;28;20090;-85
2022/08/07 13:10:44;;;;;;;1.40;0.80;;;28.50;58.90;;;;;;5080714;28;20044;-85
2022/08/07 13:13:42;;;;;;;2.88;0.80;;;28.60;58.00;;;;;;5061500;28;20153;-87
2022/08/07 13:16:38;;;;;;;1.00;0.60;;;28.60;58.30;;;;;;5068765;28;20052;-87
2022/08/07 13:19:36;;;;;;;2.28;0.70;;;28.60;57.60;;;;;;5061357;28;20078;-81
2022/08/07 13:22:39;;;;;;;1.52;1.05;;;28.70;59.10;;;;;;5070819;28;20044;-85
2022/08/07 13:25:18;;;;;;;1.98;0.95;;;28.70;59.20;;;;;;5083847;28;20449;-92
2022/08/07 13:28:06;;;;;;;1.23;0.90;;;28.80;58.50;;;;;;5067112;28;20063;-85
2022/08/07 13:30:57;;;;;;;1.30;0.88;;;28.70;56.70;;;;;;5088800;28;20147;-90
2022/08/07 13:33:43;;;;;;;1.60;1.08;;;28.70;57.40;;;;;;5058017;28;20066;-84
2022/08/07 13:36:56;;;;;;;1.55;1.00;;;28.80;56.40;;;;;;5048984;28;20033;-85
2022/08/07 13:39:34;;;;;;;2.20;0.90;;;28.80;58.10;;;;;;5030404;28;20068;-88
2022/08/07 13:42:24;;;;;;;5.55;1.55;;;29.00;58.00;;;;;;5028411;28;20632;-86
2022/08/07 13:44:53;;;;;;;3.20;1.25;;;29.10;57.90;;;;;;5064744;28;20052;-86
2022/08/07 13:47:42;;;;;;;1.73;1.13;;;29.10;57.10;;;;;;5055646;28;20555;-87
2022/08/07 13:50:31;;;;;;;1.10;0.88;;;29.30;57.30;;;;;;5077639;28;20113;-89
2022/08/07 13:53:32;;;;;;;1.80;0.85;;;29.30;56.40;;;;;;5046352;28;20044;-87
2022/08/07 13:56:23;;;;;;;1.98;1.10;;;29.20;56.60;;;;;;5033307;28;20044;-86
2022/08/07 13:59:14;;;;;;;2.00;1.15;;;29.10;57.40;;;;;;5074640;28;20073;-85
2022/08/07 14:02:10;;;;;;;2.25;1.60;;;29.00;56.80;;;;;;5051071;28;20518;-86
2022/08/07 14:05:02;;;;;;;3.13;1.80;;;28.90;56.50;;;;;;5066346;28;20052;-86
2022/08/07 14:07:38;;;;;;;3.90;1.80;;;29.00;58.70;;;;;;5049046;28;20053;-85
2022/08/07 14:10:35;;;;;;;2.38;1.70;;;29.00;58.90;;;;;;5072760;28;20335;-85
2022/08/07 14:13:17;;;;;;;3.50;2.03;;;29.10;58.40;;;;;;5040882;28;20076;-84
2022/08/07 14:16:09;;;;;;;2.10;1.60;;;29.20;58.00;;;;;;5051681;28;20562;-90
2022/08/07 14:18:48;;;;;;;2.30;1.42;;;29.30;56.30;;;;;;5036288;28;20055;-90
2022/08/07 14:21:31;;;;;;;1.88;1.20;;;29.30;56.70;;;;;;5053984;28;20205;-86
2022/08/07 14:24:44;;;;;;;5.78;1.50;;;29.30;56.40;;;;;;5069631;28;20048;-86